Time;durP1;ratioP1;P1;durP2;ratioP2;P2;SDS_P1;SDS_P2;PMS_P1;PMS_P2;Temp;Humidity;BMP_temperature;BMP_pressure;BME280_temperature;BME280_humidity;BME280_pressure;Samples;Min_cycle;Max_cycle;Signal;HPM_P1;HPM_P2
2023/04/20 00:00:09;;;;;;;1.10;1.00;;;21.80;66.70;;;;;;5054907;28;20252;-62
2023/04/20 00:02:36;;;;;;;1.40;0.80;;;21.80;66.70;;;;;;5059721;28;20199;-62
2023/04/20 00:05:10;;;;;;;1.45;1.10;;;21.70;67.40;;;;;;5064363;28;20218;-62
2023/04/20 00:07:40;;;;;;;1.30;1.20;;;21.80;66.70;;;;;;5059224;28;20211;-62
2023/04/20 00:10:09;;;;;;;1.23;1.13;;;21.70;66.60;;;;;;5058504;28;20187;-62
2023/04/20 00:12:35;;;;;;;1.00;0.90;;;21.70;66.60;;;;;;5060311;28;20204;-62
2023/04/20 00:15:12;;;;;;;1.58;0.98;;;21.70;66.70;;;;;;5056343;28;20605;-60
2023/04/20 00:17:39;;;;;;;1.75;1.02;;;21.70;66.70;;;;;;5067251;28;20213;-60
2023/04/20 00:20:30;;;;;;;1.83;1.45;;;21.70;66.70;;;;;;5057812;28;20195;-62
2023/04/20 00:23:01;;;;;;;1.73;1.15;;;21.70;66.70;;;;;;5049757;28;20223;-63
2023/04/20 00:25:31;;;;;;;1.13;1.00;;;21.70;66.70;;;;;;5061395;28;20218;-63
2023/04/20 00:27:58;;;;;;;0.90;0.75;;;21.70;66.70;;;;;;5051389;28;20285;-63
2023/04/20 00:30:30;;;;;;;1.20;1.05;;;21.60;66.70;;;;;;5055519;28;20257;-62
2023/04/20 00:33:01;;;;;;;1.77;0.90;;;21.60;66.70;;;;;;5066690;28;20190;-65
2023/04/20 00:35:30;;;;;;;1.40;1.10;;;21.60;66.70;;;;;;5055588;28;20211;-63
2023/04/20 00:37:56;;;;;;;1.20;0.90;;;21.60;66.70;;;;;;5050399;28;20199;-62
2023/04/20 00:40:25;;;;;;;1.30;1.00;;;21.60;66.70;;;;;;5048056;28;20199;-62
2023/04/20 00:42:52;;;;;;;1.63;1.20;;;21.60;66.70;;;;;;5054332;28;20203;-62
2023/04/20 00:45:21;;;;;;;1.27;0.90;;;21.50;66.70;;;;;;5049815;28;20273;-63
2023/04/20 00:47:56;;;;;;;1.33;1.23;;;21.60;66.80;;;;;;5053704;28;20220;-63
2023/04/20 00:50:23;;;;;;;1.25;1.15;;;21.50;66.70;;;;;;5062241;28;20198;-62
2023/04/20 00:52:51;;;;;;;1.30;0.80;;;21.50;66.80;;;;;;5050609;28;20721;-62
2023/04/20 00:55:20;;;;;;;1.85;1.20;;;21.50;66.80;;;;;;5046650;28;20199;-62
2023/04/20 00:57:51;;;;;;;1.42;1.10;;;21.50;66.80;;;;;;5046380;28;20448;-62
2023/04/20 01:00:21;;;;;;;1.17;1.00;;;21.50;66.80;;;;;;5056513;28;20203;-62
2023/04/20 01:02:49;;;;;;;1.10;0.93;;;21.50;66.80;;;;;;5054336;28;20567;-62
2023/04/20 01:05:16;;;;;;;1.00;0.90;;;21.50;66.80;;;;;;5062460;28;20249;-62
2023/04/20 01:07:47;;;;;;;1.20;1.10;;;21.50;66.80;;;;;;5056071;28;20203;-62
2023/04/20 01:10:16;;;;;;;1.10;0.95;;;21.40;66.70;;;;;;5055071;28;20357;-62
2023/04/20 01:12:43;;;;;;;2.28;1.17;;;21.40;66.90;;;;;;5065362;28;20206;-63
2023/04/20 01:15:10;;;;;;;1.10;0.98;;;21.40;66.80;;;;;;5053536;28;20195;-63
2023/04/20 01:17:38;;;;;;;1.10;0.90;;;21.40;67.00;;;;;;5050756;28;20195;-62
2023/04/20 01:20:08;;;;;;;1.13;1.02;;;21.40;66.90;;;;;;5054580;28;20202;-62
2023/04/20 01:22:44;;;;;;;1.00;0.90;;;21.30;66.80;;;;;;5048245;28;20214;-60
2023/04/20 01:25:10;;;;;;;1.08;0.90;;;21.40;66.90;;;;;;5061850;28;20195;-62
2023/04/20 01:27:37;;;;;;;1.45;1.17;;;21.30;66.80;;;;;;5049802;28;20655;-62
2023/04/20 01:30:05;;;;;;;1.80;1.02;;;21.30;66.90;;;;;;5053918;28;20558;-62
2023/04/20 01:32:32;;;;;;;1.30;1.20;;;21.30;66.90;;;;;;5049955;28;20195;-66
2023/04/20 01:35:01;;;;;;;1.20;1.10;;;21.30;66.90;;;;;;5058857;28;20196;-62
2023/04/20 01:37:45;;;;;;;1.10;1.00;;;21.30;66.90;;;;;;5049586;28;20623;-62
2023/04/20 01:40:15;;;;;;;1.10;0.90;;;21.30;67.00;;;;;;5049445;28;20631;-62
2023/04/20 01:42:42;;;;;;;1.10;1.00;;;21.30;67.00;;;;;;5056811;28;20212;-62
2023/04/20 01:45:12;;;;;;;1.70;1.10;;;21.30;67.00;;;;;;5047664;28;20199;-62
2023/04/20 01:47:40;;;;;;;2.88;1.20;;;21.30;67.00;;;;;;5052150;28;20199;-62
2023/04/20 01:50:07;;;;;;;1.10;0.98;;;21.20;67.00;;;;;;5049616;28;20190;-62
2023/04/20 01:52:37;;;;;;;1.17;0.98;;;21.30;67.20;;;;;;5050910;28;20555;-61
2023/04/20 01:55:17;;;;;;;1.20;0.90;;;21.30;67.10;;;;;;5054748;28;20195;-62
2023/04/20 01:57:46;;;;;;;1.58;0.90;;;21.20;67.00;;;;;;5051700;28;20206;-62
2023/04/20 02:00:14;;;;;;;1.20;0.90;;;21.30;67.00;;;;;;5051962;28;20567;-62
2023/04/20 02:02:41;;;;;;;1.48;1.08;;;21.30;67.00;;;;;;5052304;28;20203;-62
2023/04/20 02:05:09;;;;;;;1.83;1.70;;;21.30;66.90;;;;;;5053628;28;20200;-60
2023/04/20 02:07:35;;;;;;;1.85;0.80;;;21.20;66.80;;;;;;5057807;28;20231;-62
2023/04/20 02:10:05;;;;;;;1.70;1.20;;;21.20;66.90;;;;;;5052699;28;20613;-61
2023/04/20 02:12:33;;;;;;;1.60;1.10;;;21.20;66.90;;;;;;5048180;28;20203;-62
2023/04/20 02:15:00;;;;;;;1.80;1.35;;;21.20;67.00;;;;;;5046574;28;20210;-62
2023/04/20 02:17:28;;;;;;;1.30;1.00;;;21.20;66.90;;;;;;5049500;28;20659;-60
2023/04/20 02:19:55;;;;;;;1.27;1.17;;;21.20;66.90;;;;;;5050360;28;20285;-62
2023/04/20 02:22:22;;;;;;;1.08;0.90;;;21.20;66.90;;;;;;5050672;28;20212;-63
2023/04/20 02:25:04;;;;;;;1.23;0.95;;;21.20;66.90;;;;;;5057946;28;20576;-60
2023/04/20 02:27:31;;;;;;;1.10;0.90;;;21.20;66.90;;;;;;5053351;28;20254;-60
2023/04/20 02:30:02;;;;;;;1.40;1.10;;;21.20;66.90;;;;;;5059578;28;20187;-62
2023/04/20 02:32:29;;;;;;;1.10;0.90;;;21.20;66.90;;;;;;5067028;28;20199;-60
2023/04/20 02:34:56;;;;;;;1.10;1.00;;;21.10;66.80;;;;;;5051345;28;20570;-62
2023/04/20 02:37:22;;;;;;;1.20;1.10;;;21.10;66.80;;;;;;5054593;28;20230;-62
2023/04/20 02:39:51;;;;;;;1.10;0.90;;;21.10;66.80;;;;;;5055207;28;20206;-62
2023/04/20 02:42:17;;;;;;;0.95;0.82;;;21.10;66.80;;;;;;5062223;28;20207;-62
2023/04/20 02:44:46;;;;;;;1.58;1.00;;;21.10;66.70;;;;;;5060480;28;20260;-62
2023/04/20 02:47:16;;;;;;;1.10;0.98;;;21.10;66.70;;;;;;5061382;28;20211;-62
2023/04/20 02:49:44;;;;;;;1.05;0.95;;;21.10;66.70;;;;;;5050191;28;20195;-60
2023/04/20 02:52:10;;;;;;;1.30;1.05;;;21.10;66.70;;;;;;5060550;28;20217;-62
2023/04/20 02:54:37;;;;;;;1.30;1.02;;;21.10;66.60;;;;;;5057321;28;20628;-63
2023/04/20 02:57:06;;;;;;;1.20;0.90;;;21.00;66.50;;;;;;5047315;28;20669;-61
2023/04/20 02:59:35;;;;;;;1.25;1.00;;;21.00;66.50;;;;;;5051706;28;20202;-62
2023/04/20 03:02:14;;;;;;;1.42;1.33;;;21.00;66.50;;;;;;5046512;28;20742;-61
2023/04/20 03:04:42;;;;;;;1.35;1.05;;;21.00;66.50;;;;;;5049133;28;20207;-62
2023/04/20 03:07:09;;;;;;;1.17;1.00;;;21.00;66.50;;;;;;5054447;28;20227;-62
2023/04/20 03:09:36;;;;;;;1.25;0.98;;;21.00;66.50;;;;;;5068807;28;20249;-61
2023/04/20 03:12:03;;;;;;;1.13;0.93;;;21.00;66.50;;;;;;5058878;28;20278;-61
2023/04/20 03:14:35;;;;;;;1.50;1.10;;;21.00;66.50;;;;;;5050844;28;20202;-62
2023/04/20 03:17:02;;;;;;;1.00;0.90;;;21.00;66.50;;;;;;5050323;28;20200;-61
2023/04/20 03:19:33;;;;;;;2.53;1.23;;;21.00;66.50;;;;;;5054839;28;20203;-62
2023/04/20 03:22:05;;;;;;;1.48;1.20;;;21.00;66.50;;;;;;5054738;28;20221;-62
2023/04/20 03:24:32;;;;;;;1.42;0.90;;;20.90;66.40;;;;;;5058240;28;20563;-62
2023/04/20 03:26:59;;;;;;;2.67;1.10;;;20.90;66.30;;;;;;5066410;28;20637;-62
2023/04/20 03:29:26;;;;;;;1.20;0.80;;;21.00;66.40;;;;;;5058957;28;20682;-62
2023/04/20 03:31:57;;;;;;;1.00;0.82;;;21.00;66.50;;;;;;5055276;28;20516;-61
2023/04/20 03:34:31;;;;;;;1.98;1.30;;;21.00;66.50;;;;;;5064611;28;22826;-62
2023/04/20 03:36:58;;;;;;;1.20;1.10;;;20.90;66.40;;;;;;5053058;28;20654;-62
2023/04/20 03:39:26;;;;;;;2.10;1.20;;;20.90;66.40;;;;;;5055017;28;20536;-62
2023/04/20 03:41:53;;;;;;;1.02;0.90;;;20.90;66.40;;;;;;5055618;28;20546;-62
2023/04/20 03:44:19;;;;;;;1.40;1.27;;;20.90;66.40;;;;;;5052974;28;20367;-62
2023/04/20 03:46:52;;;;;;;1.73;1.15;;;20.90;66.60;;;;;;5050944;28;20219;-62
2023/04/20 03:49:24;;;;;;;1.20;1.00;;;20.90;66.60;;;;;;5052980;28;20721;-62
2023/04/20 03:51:53;;;;;;;1.30;1.20;;;20.90;66.60;;;;;;5062948;28;20191;-62
2023/04/20 03:54:21;;;;;;;1.95;1.00;;;20.90;66.60;;;;;;5057229;28;20206;-62
2023/04/20 03:56:49;;;;;;;1.20;1.00;;;20.80;66.40;;;;;;5062595;28;20742;-62
2023/04/20 03:59:16;;;;;;;1.00;0.90;;;20.90;67.30;;;;;;5051447;28;20188;-62
2023/04/20 04:01:48;;;;;;;1.15;1.05;;;20.80;66.40;;;;;;5049408;28;20202;-62
2023/04/20 04:04:15;;;;;;;1.50;1.10;;;20.80;66.40;;;;;;5050373;28;20199;-62
2023/04/20 04:06:42;;;;;;;1.10;1.00;;;20.80;66.50;;;;;;5051005;28;20713;-62
2023/04/20 04:09:08;;;;;;;1.40;1.20;;;20.80;66.50;;;;;;5059749;28;20206;-62
2023/04/20 04:11:35;;;;;;;1.15;1.00;;;20.80;66.50;;;;;;5053707;28;20227;-62
2023/04/20 04:14:31;;;;;;;1.20;1.10;;;20.80;66.50;;;;;;5048863;28;20910;-62
2023/04/20 04:17:07;;;;;;;1.30;1.00;;;20.80;66.60;;;;;;5045608;28;20197;-62
2023/04/20 04:19:34;;;;;;;1.10;0.90;;;20.80;66.60;;;;;;5059296;28;20202;-62
2023/04/20 04:22:03;;;;;;;1.45;1.10;;;20.80;66.60;;;;;;5042828;28;20281;-63
2023/04/20 04:24:30;;;;;;;1.25;1.10;;;20.80;66.70;;;;;;5058319;28;20210;-61
2023/04/20 04:26:57;;;;;;;1.25;1.05;;;20.80;66.50;;;;;;5052219;28;20309;-62
2023/04/20 04:29:25;;;;;;;1.20;1.10;;;20.80;66.50;;;;;;5040382;28;20284;-62
2023/04/20 04:31:53;;;;;;;1.23;1.10;;;20.80;66.50;;;;;;5049892;28;20729;-62
2023/04/20 04:34:20;;;;;;;1.00;0.90;;;20.80;66.50;;;;;;5050883;28;20594;-64
2023/04/20 04:36:47;;;;;;;1.98;1.08;;;20.80;66.50;;;;;;5048210;28;21683;-62
2023/04/20 04:39:14;;;;;;;1.27;1.17;;;20.80;66.50;;;;;;5063395;28;20259;-62
2023/04/20 04:41:40;;;;;;;1.90;1.20;;;20.80;66.50;;;;;;5046202;28;20231;-63
2023/04/20 04:44:07;;;;;;;2.10;0.95;;;20.80;66.50;;;;;;5055126;28;20261;-63
2023/04/20 04:46:35;;;;;;;0.95;0.85;;;20.70;66.40;;;;;;5044568;28;20234;-63
2023/04/20 04:49:04;;;;;;;1.20;1.00;;;20.80;66.50;;;;;;5042424;28;20201;-62
2023/04/20 04:51:32;;;;;;;1.52;1.02;;;20.70;66.40;;;;;;5050430;28;20295;-63
2023/04/20 04:53:58;;;;;;;1.20;1.10;;;20.70;66.40;;;;;;5056383;28;20758;-63
2023/04/20 04:56:25;;;;;;;1.20;1.00;;;20.70;66.50;;;;;;5052766;28;20600;-62
2023/04/20 04:58:52;;;;;;;1.42;1.10;;;20.70;66.40;;;;;;5051510;28;20207;-62
2023/04/20 05:01:18;;;;;;;1.40;1.30;;;20.70;66.40;;;;;;5058967;28;20199;-62
2023/04/20 05:03:45;;;;;;;1.33;1.08;;;20.70;66.40;;;;;;5059248;28;20260;-62
2023/04/20 05:06:13;;;;;;;1.17;0.98;;;20.70;66.30;;;;;;5053491;28;20532;-62
2023/04/20 05:08:40;;;;;;;1.20;0.95;;;20.70;66.40;;;;;;5058183;28;20199;-63
2023/04/20 05:11:07;;;;;;;2.45;1.10;;;20.70;66.30;;;;;;5050694;28;20203;-62
2023/04/20 05:13:33;;;;;;;1.15;1.05;;;20.70;66.20;;;;;;5052946;28;20194;-63
2023/04/20 05:16:00;;;;;;;1.00;0.90;;;20.70;66.40;;;;;;5055096;28;20199;-62
2023/04/20 05:18:27;;;;;;;1.65;1.05;;;20.70;66.60;;;;;;5062759;28;20206;-62
2023/04/20 05:20:54;;;;;;;1.10;1.00;;;20.70;66.70;;;;;;5056482;28;20246;-62
2023/04/20 05:23:22;;;;;;;1.00;0.90;;;20.70;66.50;;;;;;5052790;28;20230;-62
2023/04/20 05:25:48;;;;;;;1.63;1.00;;;20.80;66.70;;;;;;5051672;28;20203;-63
2023/04/20 05:28:15;;;;;;;1.10;0.95;;;20.80;66.70;;;;;;5059684;28;20211;-62
2023/04/20 05:30:42;;;;;;;1.10;0.95;;;20.80;66.60;;;;;;5048149;28;20203;-63
2023/04/20 05:33:08;;;;;;;2.25;1.05;;;20.80;66.60;;;;;;5055845;28;20286;-62
2023/04/20 05:35:35;;;;;;;1.15;1.02;;;20.90;66.70;;;;;;5051386;28;20195;-62
2023/04/20 05:38:05;;;;;;;1.05;0.90;;;20.90;66.70;;;;;;5054134;28;20306;-62
2023/04/20 05:40:33;;;;;;;1.20;1.08;;;20.90;66.60;;;;;;5052945;28;20199;-62
2023/04/20 05:43:00;;;;;;;1.35;1.00;;;20.90;66.60;;;;;;5049303;28;20686;-62
2023/04/20 05:45:27;;;;;;;1.70;1.13;;;20.90;66.60;;;;;;5045552;28;20653;-63
2023/04/20 05:47:54;;;;;;;1.30;1.00;;;20.90;66.50;;;;;;5042885;28;20223;-63
2023/04/20 05:50:22;;;;;;;1.00;0.90;;;20.90;66.50;;;;;;5047072;28;20244;-62
2023/04/20 05:52:49;;;;;;;2.67;1.30;;;20.90;66.40;;;;;;5052583;28;20743;-62
2023/04/20 05:55:15;;;;;;;1.73;1.25;;;20.90;66.40;;;;;;5053216;28;20253;-62
2023/04/20 05:57:44;;;;;;;1.15;1.00;;;20.90;66.40;;;;;;5053856;28;20204;-62
2023/04/20 06:00:12;;;;;;;1.70;1.40;;;20.90;66.50;;;;;;5048336;28;20199;-61
2023/04/20 06:02:40;;;;;;;3.47;1.42;;;20.90;66.50;;;;;;5052626;28;20198;-62
2023/04/20 06:05:08;;;;;;;1.52;1.15;;;20.90;66.50;;;;;;5050823;28;20202;-62
2023/04/20 06:07:34;;;;;;;2.00;1.00;;;21.00;66.70;;;;;;5047958;28;20242;-62
2023/04/20 06:10:02;;;;;;;1.17;1.08;;;20.90;66.50;;;;;;5050723;28;20198;-62
2023/04/20 06:12:29;;;;;;;1.40;1.05;;;21.00;66.60;;;;;;5049040;28;20257;-62
2023/04/20 06:14:58;;;;;;;1.30;1.00;;;21.00;66.60;;;;;;5049473;28;20505;-62
2023/04/20 06:17:24;;;;;;;1.30;1.05;;;21.00;66.60;;;;;;5049425;28;20203;-62
2023/04/20 06:19:51;;;;;;;1.17;1.02;;;21.10;66.70;;;;;;5052983;28;20226;-62
2023/04/20 06:22:19;;;;;;;1.25;1.13;;;21.00;66.50;;;;;;5045738;28;20223;-62
2023/04/20 06:24:45;;;;;;;1.15;0.90;;;21.10;66.70;;;;;;5045938;28;20199;-62
2023/04/20 06:27:12;;;;;;;1.50;1.00;;;21.10;66.60;;;;;;5042084;28;20226;-62
2023/04/20 06:29:39;;;;;;;1.30;1.10;;;21.10;66.50;;;;;;5043241;28;20823;-62
2023/04/20 06:32:07;;;;;;;1.10;0.80;;;21.10;66.50;;;;;;5046320;28;20194;-62
2023/04/20 06:34:34;;;;;;;1.10;0.90;;;21.10;66.50;;;;;;5047248;28;20245;-62
2023/04/20 06:37:00;;;;;;;1.10;1.00;;;21.20;66.60;;;;;;5046621;28;20623;-62
2023/04/20 06:39:27;;;;;;;1.00;0.80;;;21.20;66.60;;;;;;5047811;28;20688;-62
2023/04/20 06:41:54;;;;;;;1.38;1.05;;;21.20;66.50;;;;;;5049395;28;20198;-62
2023/04/20 06:44:20;;;;;;;1.13;1.00;;;21.20;66.50;;;;;;5046700;28;20265;-62
2023/04/20 06:46:47;;;;;;;1.20;0.98;;;21.20;66.40;;;;;;5048003;28;20682;-62
2023/04/20 06:49:15;;;;;;;1.60;1.23;;;21.20;66.50;;;;;;5050087;28;20604;-62
2023/04/20 06:51:42;;;;;;;1.25;1.15;;;21.20;66.40;;;;;;5046057;28;20207;-62
2023/04/20 06:54:09;;;;;;;2.70;1.08;;;21.30;66.50;;;;;;5046793;28;20736;-62
2023/04/20 06:56:36;;;;;;;1.13;0.90;;;21.30;66.50;;;;;;5050070;28;20199;-62
2023/04/20 06:59:03;;;;;;;1.15;0.90;;;21.30;66.40;;;;;;5052082;28;22012;-62
2023/04/20 07:01:29;;;;;;;1.17;1.08;;;21.30;66.40;;;;;;5052093;28;20207;-60
2023/04/20 07:03:56;;;;;;;1.63;0.90;;;21.30;66.30;;;;;;5049204;28;20275;-63
2023/04/20 07:06:26;;;;;;;1.05;0.95;;;21.30;66.30;;;;;;5045842;28;20244;-62
2023/04/20 07:08:53;;;;;;;1.30;1.00;;;21.30;66.20;;;;;;5049977;28;20286;-62
2023/04/20 07:11:20;;;;;;;1.20;1.05;;;21.30;66.20;;;;;;5043336;28;20199;-62
2023/04/20 07:13:46;;;;;;;1.23;1.10;;;21.30;66.20;;;;;;5044333;28;20575;-62
2023/04/20 07:16:15;;;;;;;1.63;1.10;;;21.30;67.00;;;;;;5049436;28;20208;-62
2023/04/20 07:18:41;;;;;;;0.90;0.80;;;21.30;66.30;;;;;;5052221;28;20321;-62
2023/04/20 07:21:08;;;;;;;1.10;0.90;;;21.30;66.20;;;;;;5054335;28;20554;-62
2023/04/20 07:23:36;;;;;;;1.20;1.00;;;21.30;66.90;;;;;;5045793;28;20287;-62
2023/04/20 07:26:03;;;;;;;1.37;0.93;;;21.40;66.30;;;;;;5051644;28;20366;-61
2023/04/20 07:28:30;;;;;;;1.05;0.93;;;21.30;66.20;;;;;;5053622;28;20476;-63
2023/04/20 07:30:58;;;;;;;0.90;0.80;;;21.40;66.30;;;;;;5049563;28;20204;-62
2023/04/20 07:33:24;;;;;;;1.10;0.90;;;21.40;66.20;;;;;;5052806;28;20220;-62
2023/04/20 07:35:51;;;;;;;1.30;0.95;;;21.40;66.20;;;;;;5064314;28;20196;-63
2023/04/20 07:38:18;;;;;;;1.00;0.82;;;21.40;66.20;;;;;;5051234;28;20207;-62
2023/04/20 07:40:46;;;;;;;1.30;1.10;;;21.40;66.10;;;;;;5046731;28;20218;-62
2023/04/20 07:43:13;;;;;;;1.02;0.88;;;21.40;66.10;;;;;;5051506;28;20204;-62
2023/04/20 07:45:40;;;;;;;1.00;0.90;;;21.40;66.00;;;;;;5044484;28;20196;-62
2023/04/20 07:48:08;;;;;;;1.10;1.00;;;21.40;66.00;;;;;;5051751;28;20473;-62
2023/04/20 07:50:35;;;;;;;1.52;0.90;;;21.50;66.10;;;;;;5051149;28;20198;-62
2023/04/20 07:53:01;;;;;;;1.17;1.00;;;21.50;66.10;;;;;;5049303;28;20199;-62
2023/04/20 07:55:28;;;;;;;1.05;0.90;;;21.50;66.10;;;;;;5044862;28;20222;-62
2023/04/20 07:57:57;;;;;;;1.10;1.00;;;21.50;66.10;;;;;;5048145;28;20211;-62
2023/04/20 08:00:24;;;;;;;1.50;1.00;;;21.50;66.10;;;;;;5051532;28;20685;-62
2023/04/20 08:02:51;;;;;;;1.00;0.90;;;21.50;66.00;;;;;;5055892;28;20988;-62
2023/04/20 08:05:18;;;;;;;1.08;0.90;;;21.50;66.00;;;;;;5058815;28;20465;-62
2023/04/20 08:07:44;;;;;;;1.00;0.90;;;21.60;66.00;;;;;;5055733;28;20219;-62
2023/04/20 08:10:11;;;;;;;1.23;1.08;;;21.60;66.80;;;;;;5048086;28;20458;-62
2023/04/20 08:12:38;;;;;;;1.10;0.90;;;21.60;66.00;;;;;;5054324;28;20668;-62
2023/04/20 08:15:08;;;;;;;1.07;0.97;;;21.60;66.00;;;;;;5052272;28;20461;-62
2023/04/20 08:17:35;;;;;;;1.10;0.90;;;21.60;65.90;;;;;;5051003;28;21122;-62
2023/04/20 08:20:03;;;;;;;1.10;0.93;;;21.60;66.00;;;;;;5055257;28;21311;-62
2023/04/20 08:22:31;;;;;;;1.10;0.90;;;21.60;66.00;;;;;;5049702;28;20480;-62
2023/04/20 08:24:58;;;;;;;1.10;0.93;;;21.60;66.00;;;;;;5053259;28;20461;-62
2023/04/20 08:27:25;;;;;;;3.43;1.10;;;21.60;66.00;;;;;;5049481;28;20980;-62
2023/04/20 08:29:51;;;;;;;1.43;1.10;;;21.70;66.20;;;;;;5047212;28;20458;-61
2023/04/20 08:32:21;;;;;;;1.60;1.10;;;21.60;66.00;;;;;;5052314;28;20549;-62
2023/04/20 08:34:48;;;;;;;1.30;0.90;;;21.60;66.10;;;;;;5057631;28;20519;-62
2023/04/20 08:37:15;;;;;;;1.33;1.03;;;21.70;66.20;;;;;;5057219;28;20466;-63
2023/04/20 08:39:41;;;;;;;1.43;0.93;;;21.70;66.30;;;;;;5052028;28;20539;-61
2023/04/20 08:42:08;;;;;;;1.10;0.98;;;21.60;66.20;;;;;;5058356;28;20450;-61
2023/04/20 08:44:35;;;;;;;1.10;1.00;;;21.60;66.20;;;;;;5060807;28;20191;-61
2023/04/20 08:47:03;;;;;;;1.10;0.80;;;21.60;66.30;;;;;;5047785;28;20478;-62
2023/04/20 08:49:31;;;;;;;1.60;1.30;;;21.60;66.40;;;;;;5049098;28;20492;-62
2023/04/20 08:51:58;;;;;;;1.57;1.03;;;21.60;66.30;;;;;;5046553;28;20507;-62
2023/04/20 08:54:25;;;;;;;1.07;0.97;;;21.60;66.30;;;;;;5044431;28;20457;-63
2023/04/20 08:56:51;;;;;;;1.60;1.20;;;21.60;66.30;;;;;;5044479;28;21088;-61
2023/04/20 08:59:18;;;;;;;1.50;1.30;;;21.70;66.50;;;;;;5059746;28;21164;-61
2023/04/20 09:01:45;;;;;;;1.42;1.33;;;21.70;66.80;;;;;;5055511;28;20453;-59
2023/04/20 09:04:16;;;;;;;1.27;1.07;;;21.70;66.60;;;;;;5054277;28;20203;-61
2023/04/20 09:06:45;;;;;;;1.30;1.00;;;21.70;66.60;;;;;;5056890;28;20450;-61
2023/04/20 09:09:12;;;;;;;2.05;1.20;;;21.70;66.70;;;;;;5051793;28;20468;-60
2023/04/20 09:11:40;;;;;;;1.10;1.00;;;21.70;66.70;;;;;;5057154;28;20609;-61
2023/04/20 09:14:11;;;;;;;2.27;1.10;;;21.70;66.70;;;;;;5047187;28;21172;-61
2023/04/20 09:16:38;;;;;;;1.15;1.00;;;21.60;66.50;;;;;;5047603;28;20458;-61
2023/04/20 09:19:05;;;;;;;1.37;0.93;;;21.70;66.70;;;;;;5054378;28;20306;-61
2023/04/20 09:21:32;;;;;;;1.10;1.00;;;21.70;66.60;;;;;;5054161;28;20670;-61
2023/04/20 09:24:01;;;;;;;1.05;0.88;;;21.70;66.60;;;;;;5043556;28;20191;-61
2023/04/20 09:26:32;;;;;;;1.10;1.00;;;21.70;66.60;;;;;;5057370;28;20480;-61
2023/04/20 09:28:59;;;;;;;2.60;1.15;;;21.70;66.50;;;;;;5052263;28;20939;-61
2023/04/20 09:31:26;;;;;;;1.30;1.00;;;21.70;66.50;;;;;;5046348;28;20199;-61
2023/04/20 09:33:57;;;;;;;1.20;1.07;;;21.70;66.50;;;;;;5055417;28;20969;-61
2023/04/20 09:36:24;;;;;;;3.08;1.35;;;21.70;66.40;;;;;;5047954;28;20462;-62
2023/04/20 09:39:07;;;;;;;5.82;1.15;;;21.70;66.30;;;;;;5051438;28;20199;-62
2023/04/20 09:41:35;;;;;;;1.10;1.00;;;21.70;66.30;;;;;;5048440;28;20261;-62
2023/04/20 09:44:02;;;;;;;1.83;1.17;;;21.70;66.20;;;;;;5049430;28;20869;-61
2023/04/20 09:46:31;;;;;;;2.35;1.40;;;21.70;66.20;;;;;;5056008;28;20464;-61
2023/04/20 09:48:59;;;;;;;1.60;0.90;;;21.70;66.20;;;;;;5050568;28;20309;-61
2023/04/20 09:51:27;;;;;;;1.73;1.00;;;21.70;66.20;;;;;;5052045;28;20499;-61
2023/04/20 09:53:55;;;;;;;1.67;1.20;;;21.70;66.10;;;;;;5051530;28;21022;-65
2023/04/20 09:56:24;;;;;;;1.13;1.02;;;21.60;66.00;;;;;;5051159;28;20207;-60
2023/04/20 09:58:51;;;;;;;4.13;1.40;;;21.60;66.00;;;;;;5048473;28;20202;-61
2023/04/20 10:01:19;;;;;;;1.00;0.90;;;21.60;65.90;;;;;;5047139;28;20199;-60
2023/04/20 10:03:46;;;;;;;1.30;1.00;;;21.60;65.90;;;;;;5053169;28;20203;-61
2023/04/20 10:06:22;;;;;;;1.75;1.20;;;21.60;65.90;;;;;;5050516;28;20485;-61
2023/04/20 10:08:50;;;;;;;1.43;1.00;;;21.60;65.80;;;;;;5047233;28;20741;-62
2023/04/20 10:11:30;;;;;;;1.20;1.10;;;21.60;65.70;;;;;;5042769;28;20479;-62
2023/04/20 10:13:57;;;;;;;1.13;0.90;;;21.60;66.60;;;;;;5048514;28;20457;-62
2023/04/20 10:16:25;;;;;;;1.20;1.10;;;21.60;65.80;;;;;;5050570;28;20199;-62
2023/04/20 10:19:00;;;;;;;1.73;0.90;;;21.60;65.70;;;;;;5050141;28;20203;-62
2023/04/20 10:21:28;;;;;;;1.70;1.30;;;21.60;66.60;;;;;;5053522;28;20566;-61
2023/04/20 10:23:55;;;;;;;1.20;1.10;;;21.70;65.90;;;;;;5057394;28;20199;-62
2023/04/20 10:26:22;;;;;;;1.90;1.13;;;21.70;65.80;;;;;;5040536;28;21028;-63
2023/04/20 10:28:50;;;;;;;1.40;1.20;;;21.70;65.60;;;;;;5045336;28;20467;-61
2023/04/20 10:31:19;;;;;;;1.75;1.48;;;21.70;65.50;;;;;;5044323;28;20207;-60
2023/04/20 10:33:53;;;;;;;1.45;0.90;;;21.70;65.50;;;;;;5042592;28;20690;-61
2023/04/20 10:36:24;;;;;;;4.07;1.43;;;21.70;65.50;;;;;;5045603;28;20253;-61
2023/04/20 10:38:51;;;;;;;4.03;1.17;;;21.80;65.60;;;;;;5042647;28;20468;-66
2023/04/20 10:41:18;;;;;;;3.35;1.50;;;21.80;65.50;;;;;;5053927;28;20548;-63
2023/04/20 10:43:45;;;;;;;4.13;1.10;;;21.80;65.70;;;;;;5055022;28;20654;-64
2023/04/20 10:46:18;;;;;;;1.10;1.00;;;21.90;66.00;;;;;;5052722;28;20896;-66
2023/04/20 10:48:55;;;;;;;4.82;1.30;;;21.90;66.00;;;;;;5047557;28;20478;-64
2023/04/20 10:51:22;;;;;;;4.97;2.15;;;21.90;66.20;;;;;;5058955;28;20320;-60
2023/04/20 10:54:04;;;;;;;7.03;0.80;;;22.00;66.40;;;;;;5050944;28;20191;-63
2023/04/20 10:56:41;;;;;;;3.30;1.10;;;22.00;66.50;;;;;;5055467;28;20456;-64
2023/04/20 10:59:09;;;;;;;3.77;1.13;;;22.00;66.70;;;;;;5056699;28;20539;-76
2023/04/20 11:01:37;;;;;;;2.90;1.50;;;22.00;66.70;;;;;;5054263;28;21044;-71
2023/04/20 11:04:04;;;;;;;5.20;1.80;;;22.00;66.60;;;;;;5054644;28;20520;-59
2023/04/20 11:06:31;;;;;;;1.80;1.13;;;22.10;66.80;;;;;;5050710;28;20458;-62
2023/04/20 11:08:58;;;;;;;2.30;1.23;;;22.00;66.50;;;;;;5050987;28;20563;-63
2023/04/20 11:11:27;;;;;;;1.40;1.30;;;22.10;66.60;;;;;;5055385;28;20453;-64
2023/04/20 11:14:05;;;;;;;4.97;1.40;;;22.10;66.50;;;;;;5052107;28;20964;-64
2023/04/20 11:16:32;;;;;;;4.23;1.47;;;22.20;67.40;;;;;;5055209;28;20458;-66
2023/04/20 11:19:00;;;;;;;3.57;1.40;;;22.10;66.60;;;;;;5048810;28;20892;-64
2023/04/20 11:21:36;;;;;;;3.10;1.70;;;22.20;66.80;;;;;;5062384;28;20463;-64
2023/04/20 11:24:02;;;;;;;1.23;1.10;;;22.20;66.80;;;;;;5048385;28;20483;-65
2023/04/20 11:26:36;;;;;;;4.57;1.60;;;22.20;66.80;;;;;;5046406;28;20461;-63
2023/04/20 11:29:03;;;;;;;1.93;1.20;;;22.20;66.80;;;;;;5045737;28;20486;-58
2023/04/20 11:31:30;;;;;;;4.87;1.20;;;22.20;66.70;;;;;;5045427;28;20452;-61
2023/04/20 11:33:57;;;;;;;1.43;1.20;;;22.30;66.80;;;;;;5047628;28;20461;-60
2023/04/20 11:36:27;;;;;;;1.80;1.30;;;22.30;66.90;;;;;;5045332;28;21019;-63
2023/04/20 11:38:54;;;;;;;4.57;1.23;;;22.30;66.80;;;;;;5048685;28;20930;-61
2023/04/20 11:41:22;;;;;;;4.03;1.20;;;22.30;66.80;;;;;;5045852;28;20533;-63
2023/04/20 11:43:48;;;;;;;2.47;1.23;;;22.30;66.80;;;;;;5041773;28;20922;-64
2023/04/20 11:46:17;;;;;;;3.67;1.47;;;22.40;67.00;;;;;;5047076;28;20535;-65
2023/04/20 11:48:44;;;;;;;2.73;1.70;;;22.40;66.80;;;;;;5050072;28;20478;-64
2023/04/20 11:51:11;;;;;;;1.50;1.37;;;22.40;66.80;;;;;;5050913;28;20460;-62
2023/04/20 11:53:39;;;;;;;2.17;1.20;;;22.40;66.80;;;;;;5049386;28;20458;-62
2023/04/20 11:56:07;;;;;;;1.50;1.20;;;22.50;66.80;;;;;;5049112;28;20449;-62
2023/04/20 11:58:34;;;;;;;1.80;1.30;;;22.50;66.70;;;;;;5052186;28;20557;-64
2023/04/20 12:01:00;;;;;;;2.20;1.17;;;22.50;66.80;;;;;;5049693;28;20851;-65
2023/04/20 12:03:27;;;;;;;2.57;1.30;;;22.50;66.70;;;;;;5055872;28;20802;-64
2023/04/20 12:05:54;;;;;;;1.47;1.10;;;22.50;66.70;;;;;;5048376;28;20492;-64
2023/04/20 12:08:22;;;;;;;2.67;2.23;;;22.60;66.90;;;;;;5039579;28;21097;-64
2023/04/20 12:10:50;;;;;;;1.60;1.20;;;22.60;66.80;;;;;;5052884;28;20536;-64
2023/04/20 12:13:17;;;;;;;2.73;1.30;;;22.60;66.80;;;;;;5059472;28;20520;-63
2023/04/20 12:15:44;;;;;;;5.40;1.33;;;22.60;66.70;;;;;;5052919;28;20461;-63
2023/04/20 12:18:10;;;;;;;5.00;1.43;;;22.60;66.60;;;;;;5054647;28;20457;-63
2023/04/20 12:20:37;;;;;;;4.93;1.50;;;22.60;66.50;;;;;;5050093;28;20992;-62
2023/04/20 12:23:04;;;;;;;2.33;1.20;;;22.60;66.10;;;;;;5047890;28;20829;-62
2023/04/20 12:25:31;;;;;;;4.40;1.80;;;22.60;66.20;;;;;;5066404;28;20468;-62
2023/04/20 12:28:01;;;;;;;6.23;1.70;;;22.60;66.00;;;;;;5056799;28;20449;-62
2023/04/20 12:30:28;;;;;;;1.97;1.80;;;22.50;65.80;;;;;;5052218;28;20477;-62
2023/04/20 12:32:55;;;;;;;4.17;1.57;;;22.50;65.80;;;;;;5059320;28;20464;-62
2023/04/20 12:35:21;;;;;;;5.70;1.80;;;22.50;65.70;;;;;;5054736;28;20462;-62
2023/04/20 12:37:48;;;;;;;9.43;1.40;;;22.50;65.50;;;;;;5056796;28;20462;-62
2023/04/20 12:40:15;;;;;;;3.70;1.30;;;22.50;65.50;;;;;;5060311;28;20487;-62
2023/04/20 12:42:41;;;;;;;3.70;1.43;;;22.60;65.50;;;;;;5064697;28;20464;-62
2023/04/20 12:45:10;;;;;;;4.83;1.20;;;22.50;66.20;;;;;;5052166;28;20461;-60
2023/04/20 12:47:37;;;;;;;1.63;1.33;;;22.60;65.40;;;;;;5057600;28;20492;-62
2023/04/20 12:50:06;;;;;;;3.20;1.30;;;22.60;65.40;;;;;;5054042;28;20535;-62
2023/04/20 12:52:32;;;;;;;1.80;1.33;;;22.60;65.40;;;;;;5057967;28;20466;-62